Time;durP1;ratioP1;P1;durP2;ratioP2;P2;SDS_P1;SDS_P2;PMS_P1;PMS_P2;Temp;Humidity;BMP_temperature;BMP_pressure;BME280_temperature;BME280_humidity;BME280_pressure;Samples;Min_cycle;Max_cycle;Signal;HPM_P1;HPM_P2
2023/01/18 00:00:39;;;;;;;14.65;10.13;;;2.00;99.90;;;;;;5092170;28;20187;-75
2023/01/18 00:03:07;;;;;;;13.65;8.32;;;1.90;99.90;;;;;;5073505;28;20872;-75
2023/01/18 00:05:34;;;;;;;19.13;9.50;;;1.90;99.90;;;;;;5071614;28;20809;-75
2023/01/18 00:07:59;;;;;;;15.00;9.02;;;1.90;99.90;;;;;;5090829;28;20168;-75
2023/01/18 00:10:25;;;;;;;13.50;8.17;;;1.80;99.90;;;;;;5071819;28;20671;-75
2023/01/18 00:12:51;;;;;;;12.53;9.43;;;1.80;99.90;;;;;;5072386;28;20188;-75
2023/01/18 00:15:16;;;;;;;12.70;8.70;;;1.80;99.90;;;;;;5072167;28;20211;-75
2023/01/18 00:17:50;;;;;;;13.70;9.13;;;1.70;99.90;;;;;;5055933;28;20178;-75
2023/01/18 00:20:21;;;;;;;13.27;8.57;;;1.70;99.90;;;;;;5071535;28;20307;-75
2023/01/18 00:22:47;;;;;;;11.93;7.43;;;1.70;99.90;;;;;;5072094;28;20164;-75
2023/01/18 00:25:12;;;;;;;12.73;8.05;;;1.70;99.90;;;;;;5055293;28;20190;-75
2023/01/18 00:27:43;;;;;;;14.93;9.70;;;1.70;99.90;;;;;;5072168;28;20176;-75
2023/01/18 00:30:09;;;;;;;11.88;8.48;;;1.70;99.90;;;;;;5089829;28;20219;-75
2023/01/18 00:32:36;;;;;;;12.95;9.18;;;1.70;99.90;;;;;;5071615;28;20214;-75
2023/01/18 00:35:06;;;;;;;13.40;8.95;;;1.70;99.90;;;;;;5072073;28;20513;-75
2023/01/18 00:37:33;;;;;;;14.35;8.35;;;1.70;99.90;;;;;;5072313;28;20216;-75
2023/01/18 00:39:58;;;;;;;11.82;8.02;;;1.70;99.90;;;;;;5092625;28;20186;-75
2023/01/18 00:45:09;;;;;;;11.98;7.68;;;1.70;99.90;;;;;;5090391;28;20286;-75
2023/01/18 00:47:35;;;;;;;11.37;7.30;;;1.60;99.90;;;;;;5089911;28;21009;-75
2023/01/18 00:50:01;;;;;;;9.60;7.90;;;1.60;99.90;;;;;;5089607;28;20637;-75
2023/01/18 00:52:27;;;;;;;10.50;7.33;;;1.60;99.90;;;;;;5089347;28;20258;-75
2023/01/18 00:54:53;;;;;;;10.68;7.82;;;1.60;99.90;;;;;;5054990;28;20286;-75
2023/01/18 00:57:19;;;;;;;12.90;8.17;;;1.60;99.90;;;;;;5071788;28;20663;-75
2023/01/18 00:59:47;;;;;;;14.43;8.77;;;1.60;99.90;;;;;;5071043;28;20199;-75
2023/01/18 01:02:13;;;;;;;12.45;9.07;;;1.60;99.90;;;;;;5089478;28;20568;-75
2023/01/18 01:07:23;;;;;;;12.07;7.18;;;1.50;99.90;;;;;;5090039;28;20178;-75
2023/01/18 01:09:49;;;;;;;9.17;7.80;;;1.60;99.90;;;;;;5070640;28;20258;-75
2023/01/18 01:26:07;;;;;;;10.57;8.23;;;1.50;99.90;;;;;;5089108;28;20651;-76
2023/01/18 01:28:44;;;;;;;15.25;9.45;;;1.50;99.90;;;;;;5089301;28;20175;-75
2023/01/18 01:31:14;;;;;;;13.80;9.10;;;1.50;99.90;;;;;;5053330;28;20623;-75
2023/01/18 01:33:40;;;;;;;16.23;9.00;;;1.50;99.90;;;;;;5071082;28;20233;-75
2023/01/18 01:36:12;;;;;;;11.60;7.40;;;1.50;99.90;;;;;;5070951;28;20207;-75
2023/01/18 01:38:40;;;;;;;12.50;8.30;;;1.60;99.90;;;;;;5089260;28;20176;-74
2023/01/18 01:41:15;;;;;;;10.68;8.77;;;1.60;99.90;;;;;;5070215;28;20705;-75
2023/01/18 01:43:51;;;;;;;11.05;7.55;;;1.50;99.90;;;;;;5087684;28;20258;-75
2023/01/18 01:46:39;;;;;;;14.55;8.70;;;1.50;99.90;;;;;;5088632;28;20202;-75
2023/01/18 01:49:11;;;;;;;13.48;7.82;;;1.50;99.90;;;;;;5089289;28;20168;-75
2023/01/18 01:51:40;;;;;;;14.52;8.77;;;1.50;99.90;;;;;;5088283;28;20195;-75
2023/01/18 01:54:14;;;;;;;11.52;8.00;;;1.50;99.90;;;;;;5093163;28;20167;-78
2023/01/18 01:56:41;;;;;;;10.95;7.75;;;1.50;99.90;;;;;;5071485;28;20267;-78
2023/01/18 01:59:08;;;;;;;10.23;7.20;;;1.50;99.90;;;;;;5070846;28;20175;-78
2023/01/18 02:01:36;;;;;;;10.73;7.25;;;1.50;99.90;;;;;;5068853;28;20540;-78
2023/01/18 02:04:02;;;;;;;10.30;7.00;;;1.50;99.90;;;;;;5070340;28;20534;-78
2023/01/18 02:06:37;;;;;;;12.07;8.93;;;1.50;99.90;;;;;;5070892;28;20175;-78
2023/01/18 02:09:07;;;;;;;12.68;7.97;;;1.50;99.90;;;;;;5070781;28;20174;-78
2023/01/18 02:11:33;;;;;;;9.88;7.75;;;1.40;99.90;;;;;;5070113;28;20192;-78
2023/01/18 02:14:04;;;;;;;12.43;6.95;;;1.40;99.90;;;;;;5070457;28;20670;-78
2023/01/18 02:16:47;;;;;;;10.18;7.40;;;1.40;99.90;;;;;;5089454;28;20647;-78
2023/01/18 02:19:30;;;;;;;12.82;7.53;;;1.40;99.90;;;;;;5054045;28;20167;-78
2023/01/18 02:22:21;;;;;;;9.15;7.38;;;1.40;99.90;;;;;;5069645;28;20191;-78
2023/01/18 02:25:06;;;;;;;8.63;6.65;;;1.40;99.90;;;;;;5070985;28;20538;-78
2023/01/18 02:27:55;;;;;;;9.25;6.93;;;1.40;99.90;;;;;;5071522;28;20214;-78
2023/01/18 02:30:30;;;;;;;11.07;7.10;;;1.40;99.90;;;;;;5078318;28;20195;-78
2023/01/18 02:33:15;;;;;;;11.68;7.22;;;1.40;99.90;;;;;;5075042;28;20270;-78
2023/01/18 02:35:52;;;;;;;9.20;6.85;;;1.40;99.90;;;;;;5074115;28;20678;-77
2023/01/18 02:38:43;;;;;;;12.93;7.13;;;1.40;99.90;;;;;;5074655;28;20179;-78
2023/01/18 02:41:16;;;;;;;9.07;5.80;;;1.40;99.90;;;;;;5073042;28;20207;-78
2023/01/18 02:46:37;;;;;;;12.75;7.03;;;1.40;99.90;;;;;;5073971;28;20170;-77
2023/01/18 02:49:05;;;;;;;9.90;5.95;;;1.40;99.90;;;;;;5057664;28;20163;-77
2023/01/18 02:51:31;;;;;;;8.00;5.97;;;1.40;99.90;;;;;;5073112;28;20637;-77
2023/01/18 02:53:57;;;;;;;12.77;7.00;;;1.40;99.90;;;;;;5073864;28;20268;-77
2023/01/18 02:56:37;;;;;;;7.35;5.55;;;1.40;99.90;;;;;;5091087;28;20168;-77
2023/01/18 02:59:10;;;;;;;9.15;6.28;;;1.40;99.90;;;;;;5073748;28;20771;-78
2023/01/18 03:02:08;;;;;;;12.48;7.40;;;1.40;99.90;;;;;;5091723;28;20198;-78
2023/01/18 03:04:52;;;;;;;10.35;6.05;;;1.40;99.90;;;;;;5081064;28;20706;-78
2023/01/18 03:07:28;;;;;;;9.40;6.38;;;1.40;99.90;;;;;;5074840;28;20171;-77
2023/01/18 03:09:55;;;;;;;8.35;6.65;;;1.40;99.90;;;;;;5094444;28;20249;-78
2023/01/18 03:12:27;;;;;;;14.48;6.70;;;1.40;99.90;;;;;;5085028;28;20237;-78
2023/01/18 03:15:03;;;;;;;11.65;8.88;;;1.40;99.90;;;;;;5091132;28;20202;-78
2023/01/18 03:17:44;;;;;;;10.60;6.90;;;1.40;99.90;;;;;;5074553;28;20224;-77
2023/01/18 03:20:13;;;;;;;10.93;6.70;;;1.40;99.90;;;;;;5073209;28;20211;-78
2023/01/18 03:25:55;;;;;;;12.13;6.88;;;1.30;99.90;;;;;;5073610;28;20176;-78
2023/01/18 03:34:08;;;;;;;9.25;6.80;;;1.30;99.90;;;;;;5091598;28;20183;-77
2023/01/18 03:36:39;;;;;;;11.77;7.43;;;1.30;99.90;;;;;;5090063;28;20171;-78
2023/01/18 03:39:10;;;;;;;9.70;6.97;;;1.30;99.90;;;;;;5090421;28;20198;-78
2023/01/18 03:41:42;;;;;;;10.43;7.07;;;1.30;99.90;;;;;;5071956;28;20234;-78
2023/01/18 03:44:20;;;;;;;10.75;6.45;;;1.30;99.90;;;;;;5091460;28;20171;-77
2023/01/18 03:46:46;;;;;;;11.00;7.35;;;1.30;99.90;;;;;;5094894;28;20245;-77
2023/01/18 03:49:12;;;;;;;9.93;6.30;;;1.30;99.90;;;;;;5091056;28;20250;-77
2023/01/18 03:52:07;;;;;;;16.77;7.10;;;1.20;99.90;;;;;;5055252;28;20612;-78
2023/01/18 03:54:49;;;;;;;9.75;6.65;;;1.30;99.90;;;;;;5085382;28;20211;-78
2023/01/18 03:57:33;;;;;;;8.30;6.50;;;1.30;99.90;;;;;;5089498;28;20172;-78
2023/01/18 04:00:01;;;;;;;12.85;7.28;;;1.30;99.90;;;;;;5090547;28;20240;-78
2023/01/18 04:02:27;;;;;;;11.60;7.50;;;1.30;99.90;;;;;;5072182;28;20175;-77
2023/01/18 04:04:56;;;;;;;11.10;7.40;;;1.30;99.90;;;;;;5073005;28;20187;-77
2023/01/18 04:07:24;;;;;;;10.55;7.97;;;1.40;99.90;;;;;;5072673;28;20176;-77
2023/01/18 04:09:50;;;;;;;13.10;7.95;;;1.40;99.90;;;;;;5055638;28;20172;-77
2023/01/18 04:12:15;;;;;;;13.90;9.47;;;1.40;99.90;;;;;;5072122;28;20187;-77
2023/01/18 04:14:41;;;;;;;11.97;8.00;;;1.40;99.90;;;;;;5072236;28;20732;-78
2023/01/18 04:17:07;;;;;;;10.80;7.70;;;1.40;99.90;;;;;;5072398;28;20260;-78
2023/01/18 04:19:32;;;;;;;11.40;8.33;;;1.40;99.90;;;;;;5089324;28;20199;-77
2023/01/18 04:21:58;;;;;;;15.03;9.00;;;1.40;99.90;;;;;;5090814;28;20199;-77
2023/01/18 04:24:24;;;;;;;12.50;7.70;;;1.40;99.90;;;;;;5075887;28;20691;-78
2023/01/18 04:26:49;;;;;;;10.60;7.27;;;1.40;99.90;;;;;;5072644;28;20263;-78
2023/01/18 04:29:15;;;;;;;11.50;7.47;;;1.40;99.90;;;;;;5088918;28;20175;-77
2023/01/18 04:31:41;;;;;;;11.80;7.90;;;1.40;99.90;;;;;;5071097;28;20211;-77
2023/01/18 04:34:06;;;;;;;8.40;7.33;;;1.40;99.90;;;;;;5071968;28;20703;-78
2023/01/18 04:36:32;;;;;;;13.07;8.03;;;1.50;99.90;;;;;;5090655;28;20195;-78
2023/01/18 04:38:58;;;;;;;13.30;7.67;;;1.50;99.90;;;;;;5072255;28;20179;-78
2023/01/18 04:41:23;;;;;;;9.50;7.20;;;1.50;99.90;;;;;;5070744;28;20226;-78
2023/01/18 04:43:49;;;;;;;12.37;7.60;;;1.50;99.90;;;;;;5055459;28;21224;-78
2023/01/18 04:46:15;;;;;;;10.73;6.60;;;1.50;99.90;;;;;;5089521;28;20697;-78
2023/01/18 04:48:41;;;;;;;11.80;8.07;;;1.50;99.90;;;;;;5088856;28;20218;-78
2023/01/18 04:51:13;;;;;;;10.23;8.35;;;1.50;99.90;;;;;;5070467;28;20248;-78
2023/01/18 04:53:41;;;;;;;14.27;9.20;;;1.50;99.90;;;;;;5090157;28;20237;-78
2023/01/18 04:56:07;;;;;;;12.80;7.35;;;1.50;99.90;;;;;;5089483;28;20293;-77
2023/01/18 04:58:32;;;;;;;12.00;7.97;;;1.60;99.90;;;;;;5089913;28;20247;-78
2023/01/18 05:01:03;;;;;;;13.00;7.20;;;1.60;99.90;;;;;;5058263;28;20617;-78
2023/01/18 05:03:29;;;;;;;16.70;8.20;;;1.60;99.90;;;;;;5071659;28;20164;-77
2023/01/18 05:05:55;;;;;;;10.17;6.20;;;1.60;99.90;;;;;;5089240;28;20172;-78
2023/01/18 05:08:21;;;;;;;10.98;7.88;;;1.60;99.90;;;;;;5063703;28;20255;-77
2023/01/18 05:10:46;;;;;;;10.27;7.40;;;1.60;99.90;;;;;;5089044;28;20623;-77
2023/01/18 05:13:12;;;;;;;7.93;5.93;;;1.60;99.90;;;;;;5088205;28;21000;-77
2023/01/18 05:15:38;;;;;;;10.37;7.23;;;1.60;99.90;;;;;;5089452;28;20682;-77
2023/01/18 05:18:05;;;;;;;11.37;6.80;;;1.60;99.90;;;;;;5071034;28;20171;-78
2023/01/18 05:20:30;;;;;;;13.05;7.80;;;1.60;99.90;;;;;;5089236;28;20199;-78
2023/01/18 05:22:56;;;;;;;13.30;7.27;;;1.60;99.90;;;;;;5070859;28;20585;-78
2023/01/18 05:25:22;;;;;;;12.90;7.23;;;1.60;99.90;;;;;;5071370;28;20190;-77
2023/01/18 05:27:47;;;;;;;9.13;6.67;;;1.60;99.90;;;;;;5087986;28;20172;-78
2023/01/18 05:30:13;;;;;;;8.90;5.97;;;1.60;99.90;;;;;;5088697;28;20206;-78
2023/01/18 05:32:39;;;;;;;15.23;8.67;;;1.60;99.90;;;;;;5088938;28;20175;-77
2023/01/18 05:35:05;;;;;;;14.47;6.67;;;1.50;99.90;;;;;;5089098;28;20621;-78
2023/01/18 05:37:31;;;;;;;12.13;7.40;;;1.50;99.90;;;;;;5091557;28;20163;-78
2023/01/18 05:39:56;;;;;;;10.37;6.93;;;1.50;99.90;;;;;;5108941;28;20183;-78
2023/01/18 05:42:22;;;;;;;10.00;7.00;;;1.60;99.90;;;;;;5109565;28;20288;-78
2023/01/18 05:44:48;;;;;;;13.10;8.07;;;1.50;99.90;;;;;;5109492;28;20865;-78
2023/01/18 05:47:13;;;;;;;11.10;7.50;;;1.50;99.90;;;;;;5091369;28;20277;-78
2023/01/18 05:49:39;;;;;;;14.73;7.80;;;1.50;99.90;;;;;;5088132;28;20186;-78
2023/01/18 05:52:07;;;;;;;12.70;7.53;;;1.50;99.90;;;;;;5070739;28;20278;-77
2023/01/18 05:54:32;;;;;;;15.85;8.05;;;1.50;99.90;;;;;;5089270;28;20837;-78
2023/01/18 05:56:58;;;;;;;13.83;8.37;;;1.50;99.90;;;;;;5071735;28;20168;-77
2023/01/18 05:59:24;;;;;;;14.00;8.50;;;1.50;99.90;;;;;;5071654;28;20696;-77
2023/01/18 06:01:50;;;;;;;11.13;8.60;;;1.50;99.90;;;;;;5070174;28;20199;-78
2023/01/18 06:04:16;;;;;;;13.15;10.30;;;1.50;99.90;;;;;;5074596;28;20172;-78
2023/01/18 06:06:41;;;;;;;16.83;8.87;;;1.40;99.90;;;;;;5057974;28;20619;-77
2023/01/18 06:09:07;;;;;;;16.40;8.20;;;1.40;99.90;;;;;;5074881;28;20199;-77
2023/01/18 06:11:33;;;;;;;15.20;8.83;;;1.40;99.90;;;;;;5092310;28;20195;-78
2023/01/18 06:13:58;;;;;;;13.60;7.43;;;1.40;99.90;;;;;;5075800;28;20163;-77
2023/01/18 06:16:24;;;;;;;12.20;7.70;;;1.40;99.90;;;;;;5078268;28;20191;-77
2023/01/18 06:18:50;;;;;;;10.70;7.50;;;1.40;99.90;;;;;;5093150;28;20978;-78
2023/01/18 06:21:16;;;;;;;13.23;7.43;;;1.40;99.90;;;;;;5092046;28;20183;-77
2023/01/18 06:23:42;;;;;;;10.40;7.90;;;1.40;99.90;;;;;;5092872;28;20562;-77
2023/01/18 06:26:08;;;;;;;12.00;7.95;;;1.40;99.90;;;;;;5092934;28;20182;-77
2023/01/18 06:28:34;;;;;;;13.80;8.53;;;1.40;99.90;;;;;;5092403;28;20168;-78
2023/01/18 06:31:03;;;;;;;13.00;8.70;;;1.30;99.90;;;;;;5091310;28;20234;-78
2023/01/18 06:33:29;;;;;;;13.07;8.57;;;1.30;99.90;;;;;;5092647;28;20211;-78
2023/01/18 06:35:55;;;;;;;10.37;7.87;;;1.30;99.90;;;;;;5092974;28;20659;-77
2023/01/18 06:38:20;;;;;;;13.10;9.63;;;1.30;99.90;;;;;;5074625;28;20180;-77
2023/01/18 06:40:46;;;;;;;11.83;8.57;;;1.30;99.90;;;;;;5074055;28;20720;-78
2023/01/18 06:43:12;;;;;;;10.70;8.13;;;1.30;99.90;;;;;;5074348;28;20222;-78
2023/01/18 06:45:39;;;;;;;17.10;9.25;;;1.40;99.90;;;;;;5092493;28;20543;-78
2023/01/18 06:48:05;;;;;;;12.77;8.48;;;1.30;99.90;;;;;;5092552;28;20200;-78
2023/01/18 06:50:31;;;;;;;13.13;7.83;;;1.30;99.90;;;;;;5057032;28;20234;-78
2023/01/18 06:52:56;;;;;;;15.10;9.13;;;1.40;99.90;;;;;;5097637;28;20178;-77
2023/01/18 06:55:22;;;;;;;14.57;8.45;;;1.30;99.90;;;;;;5092394;28;20234;-77
2023/01/18 06:57:48;;;;;;;15.30;9.20;;;1.30;99.90;;;;;;5074170;28;20206;-77
2023/01/18 07:00:15;;;;;;;12.60;8.70;;;1.30;99.90;;;;;;5073587;28;20191;-77
2023/01/18 07:02:41;;;;;;;19.00;9.50;;;1.30;99.90;;;;;;5091927;28;20168;-77
2023/01/18 07:05:07;;;;;;;12.53;8.63;;;1.40;99.90;;;;;;5093407;28;20184;-78
2023/01/18 07:07:33;;;;;;;14.25;8.98;;;1.40;99.90;;;;;;5094211;28;20573;-77
2023/01/18 07:09:58;;;;;;;12.87;9.30;;;1.40;99.90;;;;;;5092545;28;20592;-78
2023/01/18 07:12:25;;;;;;;13.57;8.83;;;1.40;99.90;;;;;;5073019;28;20171;-79
2023/01/18 07:14:50;;;;;;;13.73;9.95;;;1.40;99.90;;;;;;5092225;28;20195;-78
2023/01/18 07:17:16;;;;;;;19.17;11.10;;;1.40;99.90;;;;;;5091862;28;20174;-78
2023/01/18 07:19:43;;;;;;;11.27;8.50;;;1.40;99.90;;;;;;5073366;28;20207;-78
2023/01/18 07:22:09;;;;;;;14.07;10.23;;;1.30;99.90;;;;;;5091438;28;20554;-78
2023/01/18 07:24:34;;;;;;;15.30;9.90;;;1.40;99.90;;;;;;5073583;28;20225;-77
2023/01/18 07:27:02;;;;;;;17.60;11.07;;;1.40;99.90;;;;;;5070601;28;20747;-79
2023/01/18 07:29:27;;;;;;;22.92;12.15;;;1.40;99.90;;;;;;5078835;28;20191;-78
2023/01/18 07:31:53;;;;;;;17.77;11.67;;;1.40;99.90;;;;;;5093106;28;20184;-78
2023/01/18 07:34:19;;;;;;;16.57;11.57;;;1.40;99.90;;;;;;5074639;28;20757;-78
2023/01/18 07:36:44;;;;;;;17.07;11.33;;;1.40;99.90;;;;;;5092635;28;20164;-78
2023/01/18 07:39:10;;;;;;;17.43;11.40;;;1.40;99.90;;;;;;5074606;28;20709;-78
2023/01/18 07:41:37;;;;;;;15.63;11.20;;;1.40;99.90;;;;;;5074159;28;20349;-78
2023/01/18 07:44:03;;;;;;;15.57;10.82;;;1.40;99.90;;;;;;5092873;28;20175;-78
2023/01/18 07:46:29;;;;;;;15.43;10.05;;;1.40;99.90;;;;;;5093671;28;20191;-78
2023/01/18 07:48:55;;;;;;;14.80;10.30;;;1.40;99.90;;;;;;5058513;28;20262;-78
2023/01/18 07:51:21;;;;;;;16.03;9.30;;;1.40;99.90;;;;;;5092292;28;20284;-78
2023/01/18 07:53:47;;;;;;;15.55;10.88;;;1.40;99.90;;;;;;5075635;28;20179;-75
2023/01/18 07:56:17;;;;;;;19.43;10.53;;;1.50;99.90;;;;;;5092127;28;20230;-76
2023/01/18 07:58:43;;;;;;;18.25;12.13;;;1.50;99.90;;;;;;5074930;28;21144;-77
2023/01/18 08:01:13;;;;;;;15.63;10.75;;;1.40;99.90;;;;;;5091966;28;20218;-77
2023/01/18 08:03:38;;;;;;;14.52;9.65;;;1.50;99.90;;;;;;5093238;28;20175;-78
2023/01/18 08:06:06;;;;;;;13.20;9.83;;;1.50;99.90;;;;;;5097534;28;20176;-79
2023/01/18 08:08:33;;;;;;;14.60;9.15;;;1.50;99.90;;;;;;5079648;28;20636;-78
2023/01/18 08:11:02;;;;;;;14.23;9.70;;;1.60;99.90;;;;;;5078932;28;20230;-78
2023/01/18 08:13:28;;;;;;;18.58;10.68;;;1.60;99.90;;;;;;5120783;28;20196;-78
2023/01/18 08:15:58;;;;;;;17.50;11.25;;;1.60;99.90;;;;;;5137425;28;20208;-77
2023/01/18 08:18:24;;;;;;;16.58;11.00;;;1.60;99.90;;;;;;5137178;28;20177;-77
2023/01/18 08:20:50;;;;;;;19.77;10.47;;;1.70;99.90;;;;;;5102438;28;20274;-77
2023/01/18 08:23:16;;;;;;;16.45;11.80;;;1.70;99.90;;;;;;5094295;28;20175;-78
2023/01/18 08:25:43;;;;;;;14.60;10.20;;;1.70;99.90;;;;;;5093672;28;20655;-77
2023/01/18 08:28:09;;;;;;;14.50;9.20;;;1.80;99.90;;;;;;5086316;28;20271;-77
2023/01/18 08:30:39;;;;;;;13.88;8.57;;;1.80;99.90;;;;;;5091985;28;20192;-77
2023/01/18 08:33:06;;;;;;;21.83;12.02;;;1.80;99.90;;;;;;5091313;28;20270;-77
2023/01/18 08:35:41;;;;;;;15.35;11.70;;;1.90;99.90;;;;;;5092093;28;20286;-79
2023/01/18 08:38:06;;;;;;;17.42;10.45;;;1.90;99.90;;;;;;5092201;28;20179;-78
2023/01/18 08:40:33;;;;;;;18.15;11.27;;;2.00;99.90;;;;;;5056750;28;20265;-78
2023/01/18 08:43:01;;;;;;;14.30;9.05;;;2.00;99.90;;;;;;5093641;28;20256;-76
2023/01/18 08:45:27;;;;;;;14.40;11.00;;;2.00;99.90;;;;;;5094720;28;20191;-76
2023/01/18 08:47:57;;;;;;;15.07;9.98;;;2.10;99.90;;;;;;5093789;28;20176;-76
2023/01/18 08:50:24;;;;;;;12.77;9.40;;;2.10;99.90;;;;;;5077825;28;20245;-77
2023/01/18 08:52:52;;;;;;;17.98;10.55;;;2.20;99.90;;;;;;5092725;28;20202;-77
2023/01/18 08:55:20;;;;;;;13.00;8.68;;;2.20;99.90;;;;;;5072006;28;20199;-77
2023/01/18 08:57:49;;;;;;;15.57;10.02;;;2.20;99.90;;;;;;5108137;28;20190;-77
2023/01/18 09:00:16;;;;;;;15.07;10.75;;;2.20;99.90;;;;;;5108851;28;20194;-76
2023/01/18 09:02:42;;;;;;;12.77;9.48;;;2.30;99.90;;;;;;5103527;28;20179;-77
2023/01/18 09:05:08;;;;;;;12.37;9.30;;;2.30;99.90;;;;;;5111319;28;20164;-77
2023/01/18 09:07:34;;;;;;;20.67;9.80;;;2.30;99.90;;;;;;5091262;28;20187;-77
2023/01/18 09:10:01;;;;;;;20.10;12.33;;;2.30;99.90;;;;;;5112649;28;20616;-77
2023/01/18 09:12:26;;;;;;;18.75;13.38;;;2.30;99.90;;;;;;5092423;28;20171;-78
2023/01/18 09:14:52;;;;;;;16.47;11.90;;;2.30;99.90;;;;;;5100190;28;20730;-78
2023/01/18 09:17:19;;;;;;;17.10;10.77;;;2.30;99.90;;;;;;5093705;28;20211;-77
2023/01/18 09:19:45;;;;;;;13.05;10.35;;;2.40;99.90;;;;;;5098027;28;20168;-78
2023/01/18 09:22:11;;;;;;;13.33;9.70;;;2.50;99.90;;;;;;5098109;28;20195;-78
2023/01/18 09:24:36;;;;;;;11.88;9.45;;;2.60;99.90;;;;;;5078172;28;20594;-78
2023/01/18 09:27:03;;;;;;;14.80;10.27;;;2.70;99.90;;;;;;5080773;28;20171;-77
2023/01/18 09:29:30;;;;;;;13.52;9.70;;;2.80;99.90;;;;;;5101607;28;20614;-77
2023/01/18 09:31:56;;;;;;;16.75;10.45;;;2.90;99.90;;;;;;5093783;28;20199;-78
2023/01/18 09:34:22;;;;;;;15.15;10.20;;;3.00;99.90;;;;;;5112690;28;20170;-76
2023/01/18 09:36:50;;;;;;;16.02;10.52;;;3.10;99.90;;;;;;5116103;28;20205;-77
2023/01/18 09:39:16;;;;;;;12.75;9.90;;;3.10;99.90;;;;;;5118897;28;20159;-77
2023/01/18 09:41:47;;;;;;;14.38;10.07;;;3.10;99.90;;;;;;5094325;28;20581;-77
2023/01/18 09:44:38;;;;;;;16.30;9.75;;;3.20;99.90;;;;;;5114032;28;20179;-75
2023/01/18 09:47:20;;;;;;;13.50;10.88;;;3.20;99.90;;;;;;5097921;28;20278;-78
2023/01/18 09:50:01;;;;;;;17.23;9.30;;;3.30;99.90;;;;;;5096049;28;20313;-78
2023/01/18 09:52:46;;;;;;;14.95;10.82;;;3.40;99.90;;;;;;5121064;28;20175;-77
2023/01/18 09:55:42;;;;;;;17.33;10.23;;;3.50;99.90;;;;;;5120860;28;20213;-77
2023/01/18 09:58:20;;;;;;;13.45;9.82;;;3.60;99.90;;;;;;5091922;28;20204;-77
2023/01/18 10:00:48;;;;;;;13.93;10.25;;;3.70;99.90;;;;;;5125586;28;20200;-77
2023/01/18 10:03:32;;;;;;;16.05;10.88;;;3.90;99.90;;;;;;5083533;28;20174;-77
2023/01/18 10:06:14;;;;;;;12.68;9.95;;;4.00;99.90;;;;;;5123250;28;20313;-77
2023/01/18 10:08:52;;;;;;;15.90;9.10;;;4.10;99.90;;;;;;5119504;28;20206;-77
2023/01/18 10:11:30;;;;;;;12.43;10.07;;;4.10;99.90;;;;;;5115998;28;20212;-77
2023/01/18 10:14:19;;;;;;;12.80;10.02;;;4.20;99.90;;;;;;5111161;28;20258;-77
2023/01/18 10:16:51;;;;;;;14.68;9.45;;;4.30;99.90;;;;;;5068239;28;20223;-77
2023/01/18 10:19:23;;;;;;;13.90;9.40;;;4.40;99.90;;;;;;5085014;28;20179;-77
2023/01/18 10:22:32;;;;;;;16.42;10.88;;;4.50;99.90;;;;;;5084859;28;20191;-77
2023/01/18 10:25:14;;;;;;;16.92;11.00;;;4.60;99.90;;;;;;5054637;28;20195;-77
2023/01/18 10:28:11;;;;;;;13.38;9.68;;;4.80;99.90;;;;;;5084479;28;20186;-77
2023/01/18 10:30:54;;;;;;;12.60;9.60;;;4.80;99.90;;;;;;5080094;28;20191;-77
2023/01/18 10:33:42;;;;;;;13.82;9.32;;;4.90;99.90;;;;;;5076075;28;20554;-78
2023/01/18 10:36:40;;;;;;;11.30;8.80;;;5.00;99.90;;;;;;5086839;28;20225;-78
2023/01/18 10:39:26;;;;;;;15.90;10.15;;;5.20;99.90;;;;;;5068124;28;20188;-78
2023/01/18 10:41:55;;;;;;;12.65;9.35;;;5.20;99.90;;;;;;5071951;28;20701;-78
2023/01/18 10:44:22;;;;;;;16.58;10.05;;;5.30;99.90;;;;;;5105044;28;20243;-77
2023/01/18 10:46:48;;;;;;;13.48;9.57;;;5.40;99.90;;;;;;5095506;28;20619;-77
2023/01/18 10:49:56;;;;;;;14.37;10.13;;;5.40;99.90;;;;;;5097627;28;20187;-77
2023/01/18 10:52:26;;;;;;;10.63;8.30;;;5.50;99.90;;;;;;5012231;28;20204;-77
2023/01/18 10:54:58;;;;;;;13.20;8.52;;;5.50;99.90;;;;;;4997339;28;20201;-77
2023/01/18 10:57:29;;;;;;;16.50;9.80;;;5.60;99.90;;;;;;5060033;28;20187;-77
2023/01/18 10:59:55;;;;;;;14.13;9.48;;;5.60;99.90;;;;;;5095572;28;20709;-77
2023/01/18 11:02:26;;;;;;;11.75;9.20;;;5.70;99.90;;;;;;5094672;28;20179;-77
2023/01/18 11:05:14;;;;;;;13.20;9.40;;;5.80;99.90;;;;;;5094552;28;20270;-77
2023/01/18 11:07:40;;;;;;;12.07;8.70;;;5.90;99.90;;;;;;5075598;28;20221;-77
2023/01/18 11:10:25;;;;;;;10.70;9.57;;;6.00;99.90;;;;;;5093337;28;20199;-77
2023/01/18 11:12:53;;;;;;;13.50;9.55;;;6.00;99.90;;;;;;5096822;28;20617;-77
2023/01/18 11:15:21;;;;;;;11.00;8.65;;;6.10;99.90;;;;;;5094020;28;20249;-77
2023/01/18 11:17:56;;;;;;;15.57;8.32;;;6.20;99.90;;;;;;5093458;28;20523;-77
2023/01/18 11:20:28;;;;;;;11.80;9.07;;;6.30;99.90;;;;;;5075018;28;20187;-77
2023/01/18 11:22:59;;;;;;;13.43;10.60;;;6.30;99.90;;;;;;5092866;28;20644;-77
2023/01/18 11:25:33;;;;;;;12.80;9.10;;;6.40;99.90;;;;;;5075719;28;20175;-77
2023/01/18 11:28:06;;;;;;;11.10;8.35;;;6.40;99.90;;;;;;5038057;28;20505;-77
2023/01/18 11:30:33;;;;;;;13.82;8.73;;;6.50;99.90;;;;;;5073327;28;20207;-77
2023/01/18 11:32:59;;;;;;;10.63;8.95;;;6.50;99.90;;;;;;5058194;28;20172;-78
2023/01/18 11:35:36;;;;;;;11.17;9.20;;;6.50;99.90;;;;;;5073022;28;20536;-77
2023/01/18 11:38:05;;;;;;;11.88;8.00;;;6.50;99.90;;;;;;5054458;28;20593;-77
2023/01/18 11:40:34;;;;;;;11.45;8.95;;;6.50;99.90;;;;;;5072533;28;20349;-76
2023/01/18 11:43:23;;;;;;;10.88;8.18;;;6.50;99.90;;;;;;5072829;28;20172;-75
2023/01/18 11:45:57;;;;;;;12.15;8.55;;;6.50;99.90;;;;;;5067319;28;20176;-76
2023/01/18 11:49:22;;;;;;;14.43;6.97;;;6.50;99.90;;;;;;5074664;28;20218;-75
2023/01/18 11:51:59;;;;;;;9.20;6.97;;;6.50;99.90;;;;;;5024404;28;20208;-75
2023/01/18 11:54:37;;;;;;;12.48;7.10;;;6.50;99.90;;;;;;5036065;28;20181;-76
2023/01/18 11:57:03;;;;;;;12.45;8.82;;;6.50;99.90;;;;;;5062177;28;20526;-76
2023/01/18 11:59:42;;;;;;;12.07;8.82;;;6.40;99.90;;;;;;5085640;28;20187;-76
2023/01/18 12:02:32;;;;;;;13.40;9.23;;;6.40;99.90;;;;;;5041321;28;20183;-76
2023/01/18 12:04:58;;;;;;;10.52;7.38;;;6.40;99.90;;;;;;5075432;28;20203;-76
2023/01/18 12:07:36;;;;;;;9.67;7.23;;;6.30;99.90;;;;;;5092353;28;20709;-75
2023/01/18 12:10:09;;;;;;;10.63;6.93;;;6.30;99.90;;;;;;5074654;28;20321;-76
2023/01/18 12:13:28;;;;;;;8.55;6.28;;;6.30;99.90;;;;;;5073754;28;20171;-77
2023/01/18 12:16:03;;;;;;;10.02;6.75;;;6.20;99.90;;;;;;5092842;28;20203;-76
2023/01/18 12:18:56;;;;;;;16.17;11.75;;;6.20;99.90;;;;;;5074041;28;20623;-76
2023/01/18 12:21:54;;;;;;;19.80;11.38;;;6.10;99.90;;;;;;5074896;28;20176;-77
2023/01/18 12:24:50;;;;;;;13.40;9.70;;;6.10;99.90;;;;;;5075648;28;20186;-76
2023/01/18 12:27:29;;;;;;;14.85;8.52;;;6.00;99.90;;;;;;5094898;28;20171;-76
2023/01/18 12:30:32;;;;;;;15.43;8.77;;;6.00;99.90;;;;;;5051322;28;20179;-76
2023/01/18 12:33:48;;;;;;;8.10;6.20;;;6.00;99.90;;;;;;5074325;28;20174;-76
2023/01/18 12:37:16;;;;;;;7.88;5.97;;;6.00;99.90;;;;;;5035789;28;20582;-76
2023/01/18 12:39:55;;;;;;;9.68;6.63;;;5.90;99.90;;;;;;5084095;28;20172;-77
2023/01/18 12:42:30;;;;;;;8.20;6.15;;;5.90;99.90;;;;;;5074045;28;20175;-76
2023/01/18 12:45:04;;;;;;;8.32;6.05;;;5.90;99.90;;;;;;5056311;28;20214;-77
2023/01/18 12:47:41;;;;;;;5.75;4.60;;;5.90;99.90;;;;;;5074654;28;20175;-77
2023/01/18 12:50:23;;;;;;;6.05;4.53;;;5.90;99.90;;;;;;5057094;28;20202;-76
2023/01/18 12:53:04;;;;;;;6.85;4.75;;;5.90;99.90;;;;;;5092357;28;20178;-76
2023/01/18 12:55:33;;;;;;;6.88;5.10;;;5.90;99.90;;;;;;5085207;28;20241;-76
2023/01/18 12:58:01;;;;;;;6.25;4.90;;;5.90;99.90;;;;;;5072822;28;20194;-76
2023/01/18 13:00:39;;;;;;;8.82;5.82;;;6.00;99.90;;;;;;5076176;28;20198;-76
2023/01/18 13:03:15;;;;;;;8.27;5.45;;;5.90;99.90;;;;;;5093395;28;20171;-76
2023/01/18 13:05:58;;;;;;;9.27;5.65;;;6.00;99.90;;;;;;5079656;28;20174;-76
2023/01/18 13:08:46;;;;;;;5.70;4.85;;;6.00;99.90;;;;;;5099363;28;20173;-77
2023/01/18 13:11:22;;;;;;;7.22;5.05;;;6.00;99.90;;;;;;5075379;28;20197;-77
2023/01/18 13:13:54;;;;;;;8.73;5.25;;;6.00;99.90;;;;;;5118017;28;20171;-77
2023/01/18 13:16:38;;;;;;;7.72;4.07;;;6.00;99.90;;;;;;5086279;28;20226;-77
2023/01/18 13:19:19;;;;;;;7.53;4.65;;;6.00;99.90;;;;;;5107289;28;20193;-77
2023/01/18 13:22:12;;;;;;;5.80;4.45;;;6.00;99.90;;;;;;5103091;28;20199;-77
2023/01/18 13:25:13;;;;;;;10.75;7.38;;;6.10;99.90;;;;;;5079565;28;20176;-77
2023/01/18 13:27:59;;;;;;;9.85;5.20;;;6.10;99.90;;;;;;5093160;28;20189;-77
2023/01/18 13:30:26;;;;;;;8.50;5.20;;;6.10;99.90;;;;;;5094566;28;20270;-77
2023/01/18 13:32:52;;;;;;;6.95;5.18;;;6.10;99.90;;;;;;5094329;28;20183;-77
2023/01/18 13:35:37;;;;;;;9.20;5.18;;;6.10;99.90;;;;;;5056708;28;20203;-77
2023/01/18 13:38:17;;;;;;;8.65;3.58;;;6.10;99.90;;;;;;5091544;28;20175;-78
2023/01/18 13:40:50;;;;;;;9.77;3.95;;;6.20;99.90;;;;;;5094739;28;20226;-78